createdAt,value
2023-04-08T00:01:10.841Z,10.90
2023-04-08T00:03:38.059Z,10.90
2023-04-08T00:06:05.059Z,10.90
2023-04-08T00:08:32.554Z,10.90
2023-04-08T00:10:59.358Z,10.90
2023-04-08T00:13:26.757Z,10.80
2023-04-08T00:15:53.677Z,10.90
2023-04-08T00:18:21.178Z,10.90
2023-04-08T00:20:48.082Z,10.80
2023-04-08T00:23:15.072Z,10.80
2023-04-08T00:25:42.111Z,10.80
2023-04-08T00:28:09.195Z,10.90
2023-04-08T00:30:36.522Z,10.80
2023-04-08T00:33:04.519Z,10.80
2023-04-08T00:35:31.541Z,10.80
2023-04-08T00:37:58.321Z,10.80
2023-04-08T00:40:25.399Z,10.80
2023-04-08T00:42:52.423Z,10.90
2023-04-08T00:45:19.511Z,11.00
2023-04-08T00:47:47.271Z,10.90
2023-04-08T00:50:14.080Z,11.00
2023-04-08T00:52:40.974Z,10.60
2023-04-08T00:55:08.277Z,10.70
2023-04-08T00:57:35.744Z,10.70
2023-04-08T01:00:06.007Z,10.70
2023-04-08T01:02:57.885Z,10.60
2023-04-08T01:05:40.530Z,10.60
2023-04-08T01:08:10.533Z,10.60
2023-04-08T01:10:39.100Z,10.70
2023-04-08T01:13:10.292Z,10.60
2023-04-08T01:15:39.312Z,10.60
2023-04-08T01:18:13.532Z,10.80
2023-04-08T01:20:43.025Z,10.90
2023-04-08T01:23:21.901Z,10.80
2023-04-08T01:25:54.113Z,10.80
2023-04-08T01:28:28.591Z,10.80
2023-04-08T01:30:58.414Z,10.80
2023-04-08T01:33:27.652Z,10.80
2023-04-08T01:35:56.854Z,10.80
2023-04-08T01:38:26.666Z,10.70
2023-04-08T01:40:55.437Z,10.70
2023-04-08T01:43:23.042Z,10.70
2023-04-08T01:45:54.456Z,10.80
2023-04-08T01:48:22.382Z,10.80
2023-04-08T01:50:51.352Z,10.80
2023-04-08T01:53:18.463Z,10.70
2023-04-08T01:55:46.789Z,10.60
2023-04-08T01:58:21.584Z,10.60
2023-04-08T02:00:49.916Z,10.70
2023-04-08T02:03:20.381Z,10.60
2023-04-08T02:05:47.528Z,10.70
2023-04-08T02:08:14.452Z,10.60
2023-04-08T02:10:41.809Z,10.50
2023-04-08T02:13:08.857Z,10.50
2023-04-08T02:15:42.845Z,10.60
2023-04-08T02:18:16.851Z,10.60
2023-04-08T02:20:47.642Z,10.70
2023-04-08T02:23:22.692Z,10.80
2023-04-08T02:25:50.661Z,10.80
2023-04-08T02:28:19.729Z,10.80
2023-04-08T02:30:52.562Z,10.90
2023-04-08T02:33:22.364Z,10.80
2023-04-08T02:35:51.644Z,10.50
2023-04-08T02:38:18.867Z,10.70
2023-04-08T02:40:45.714Z,10.80
2023-04-08T02:43:12.499Z,10.90
2023-04-08T02:45:42.619Z,10.90
2023-04-08T02:48:09.997Z,10.70
2023-04-08T02:50:37.486Z,10.70
2023-04-08T02:53:04.616Z,10.70
2023-04-08T02:55:31.689Z,10.70
2023-04-08T02:57:58.648Z,10.70
2023-04-08T03:00:25.731Z,10.70
2023-04-08T03:02:52.744Z,10.80
2023-04-08T03:05:19.910Z,10.30
2023-04-08T03:07:47.019Z,10.30
2023-04-08T03:10:14.205Z,10.20
2023-04-08T03:12:41.324Z,10.30
2023-04-08T03:15:08.640Z,10.40
2023-04-08T03:17:35.825Z,10.30
2023-04-08T03:20:06.995Z,10.40
2023-04-08T03:22:34.357Z,10.40
2023-04-08T03:25:01.230Z,10.30
2023-04-08T03:27:28.192Z,10.30
2023-04-08T03:29:55.039Z,10.30
2023-04-08T03:32:21.879Z,10.30
2023-04-08T03:34:51.337Z,10.30
2023-04-08T03:37:18.892Z,10.30
2023-04-08T03:39:46.502Z,10.30
2023-04-08T03:42:13.467Z,10.30
2023-04-08T03:44:40.294Z,10.30
2023-04-08T03:47:07.103Z,10.30
2023-04-08T03:49:33.908Z,10.30
2023-04-08T03:52:00.886Z,10.30
2023-04-08T03:54:27.854Z,10.40
2023-04-08T03:56:56.347Z,10.50
2023-04-08T03:59:23.268Z,10.50
2023-04-08T04:01:51.533Z,10.60
2023-04-08T04:04:18.850Z,10.50
2023-04-08T04:06:46.241Z,10.50
2023-04-08T04:09:13.606Z,10.40
2023-04-08T04:11:40.636Z,10.40
2023-04-08T04:14:07.472Z,10.40
2023-04-08T04:16:34.380Z,10.40
2023-04-08T04:19:01.513Z,10.60
2023-04-08T04:21:28.527Z,10.60
2023-04-08T04:23:55.744Z,10.60
2023-04-08T04:26:22.743Z,10.60
2023-04-08T04:28:50.195Z,10.70
2023-04-08T04:31:26.557Z,10.80
2023-04-08T04:33:54.080Z,10.80
2023-04-08T04:36:21.205Z,10.70
2023-04-08T04:38:50.307Z,10.50
2023-04-08T04:41:17.808Z,10.50
2023-04-08T04:43:44.637Z,10.40
2023-04-08T04:46:11.556Z,10.40
2023-04-08T04:48:38.417Z,10.40
2023-04-08T04:51:07.532Z,10.30
2023-04-08T04:53:34.889Z,10.20
2023-04-08T04:56:02.057Z,10.60
2023-04-08T04:58:29.614Z,10.50
2023-04-08T05:00:57.016Z,10.50
2023-04-08T05:03:24.209Z,10.50
2023-04-08T05:05:55.166Z,10.60
2023-04-08T05:08:22.149Z,10.60
2023-04-08T05:10:50.884Z,10.70
2023-04-08T05:13:18.758Z,10.70
2023-04-08T05:15:46.006Z,10.70
2023-04-08T05:18:13.642Z,10.60
2023-04-08T05:20:40.572Z,10.70
2023-04-08T05:23:08.126Z,10.60
2023-04-08T05:25:35.138Z,10.70
2023-04-08T05:28:02.069Z,10.60
2023-04-08T05:30:28.938Z,10.60
2023-04-08T05:32:58.506Z,10.80
2023-04-08T05:35:26.884Z,11.00
2023-04-08T05:37:53.795Z,11.00
2023-04-08T05:40:20.843Z,11.00
2023-04-08T05:42:47.977Z,10.90
2023-04-08T05:45:15.039Z,10.80
2023-04-08T05:47:41.921Z,10.60
2023-04-08T05:50:09.195Z,10.50
2023-04-08T05:52:36.131Z,10.70
2023-04-08T05:55:03.041Z,10.60
2023-04-08T05:57:29.870Z,10.60
2023-04-08T05:59:56.800Z,10.60
2023-04-08T06:02:23.970Z,10.80
2023-04-08T06:04:51.130Z,11.00
2023-04-08T06:07:17.976Z,11.20
2023-04-08T06:09:45.447Z,11.10
2023-04-08T06:12:12.411Z,11.10
2023-04-08T06:14:39.928Z,10.90
2023-04-08T06:17:09.352Z,10.90
2023-04-08T06:19:36.182Z,10.90
2023-04-08T06:22:03.248Z,11.00
2023-04-08T06:24:30.283Z,11.20
2023-04-08T06:26:57.347Z,11.30
2023-04-08T06:29:24.375Z,11.30
2023-04-08T06:31:51.646Z,11.40
2023-04-08T06:34:18.674Z,11.30
2023-04-08T06:36:45.509Z,11.20
2023-04-08T06:39:12.464Z,11.20
2023-04-08T06:41:39.408Z,11.20
2023-04-08T06:44:06.494Z,11.20
2023-04-08T06:46:33.495Z,11.10
2023-04-08T06:49:00.436Z,11.20
2023-04-08T06:51:28.032Z,11.20
2023-04-08T06:53:55.211Z,11.20
2023-04-08T06:56:23.016Z,11.20
2023-04-08T06:58:50.157Z,11.20
2023-04-08T07:01:17.421Z,11.30
2023-04-08T07:03:44.358Z,11.30
2023-04-08T07:06:11.549Z,11.30
2023-04-08T07:08:38.849Z,11.20
2023-04-08T07:11:05.856Z,11.30
2023-04-08T07:13:32.876Z,11.50
2023-04-08T07:15:59.922Z,11.60
2023-04-08T07:18:28.170Z,11.60
2023-04-08T07:20:55.693Z,11.60
2023-04-08T07:23:22.974Z,11.70
2023-04-08T07:25:49.813Z,11.90
2023-04-08T07:28:16.749Z,11.80
2023-04-08T07:30:43.557Z,11.80
2023-04-08T07:33:10.533Z,11.80
2023-04-08T07:35:38.028Z,11.80
2023-04-08T07:38:09.296Z,11.90
2023-04-08T07:40:36.648Z,12.00
2023-04-08T07:43:03.606Z,12.20
2023-04-08T07:45:30.640Z,12.40
2023-04-08T07:47:57.718Z,12.30
2023-04-08T07:50:24.700Z,12.50
2023-04-08T07:52:53.397Z,12.50
2023-04-08T07:55:20.388Z,12.70
2023-04-08T07:57:47.453Z,12.80
2023-04-08T08:00:21.067Z,12.90
2023-04-08T08:02:49.023Z,12.80
2023-04-08T08:05:16.225Z,12.70
2023-04-08T08:07:43.404Z,12.80
2023-04-08T08:10:11.388Z,12.90
2023-04-08T08:12:39.039Z,13.00
2023-04-08T08:15:07.413Z,13.20
2023-04-08T08:17:35.544Z,13.20
2023-04-08T08:20:04.620Z,13.00
2023-04-08T08:22:31.678Z,13.10
2023-04-08T08:24:59.557Z,13.20
2023-04-08T08:27:26.601Z,13.20
2023-04-08T08:29:53.680Z,13.40
2023-04-08T08:32:20.708Z,13.60
2023-04-08T08:34:47.671Z,13.60
2023-04-08T08:37:14.825Z,13.60
2023-04-08T08:39:41.819Z,13.60
2023-04-08T08:42:19.628Z,13.70
2023-04-08T08:44:46.860Z,14.00
2023-04-08T08:47:14.152Z,14.30
2023-04-08T08:49:41.704Z,14.20
2023-04-08T08:52:08.633Z,14.20
2023-04-08T08:54:35.818Z,14.10
2023-04-08T08:57:02.689Z,14.00
2023-04-08T08:59:29.534Z,14.10
2023-04-08T09:01:56.763Z,14.50
2023-04-08T09:04:26.986Z,14.60
2023-04-08T09:07:11.197Z,14.70
2023-04-08T09:09:49.875Z,14.50
2023-04-08T09:12:18.111Z,14.60
2023-04-08T09:14:45.421Z,14.60
2023-04-08T09:17:12.885Z,14.50
2023-04-08T09:19:40.202Z,14.70
2023-04-08T09:22:12.269Z,14.90
2023-04-08T09:24:39.260Z,15.20
2023-04-08T09:27:06.651Z,14.90
2023-04-08T09:29:38.222Z,14.80
2023-04-08T09:32:06.773Z,14.70
2023-04-08T09:34:34.577Z,14.50
2023-04-08T09:37:02.121Z,14.80
2023-04-08T09:39:29.045Z,14.80
2023-04-08T09:42:01.486Z,15.00
2023-04-08T09:44:30.630Z,15.20
2023-04-08T09:47:20.819Z,15.20
2023-04-08T09:49:55.438Z,15.20
2023-04-08T09:52:30.692Z,15.20
2023-04-08T09:55:06.595Z,14.90
2023-04-08T09:58:11.625Z,14.80
2023-04-08T10:00:44.288Z,15.00
2023-04-08T10:03:28.670Z,15.10
2023-04-08T10:05:59.862Z,15.10
2023-04-08T10:08:27.379Z,15.00
2023-04-08T10:10:56.390Z,15.10
2023-04-08T10:13:24.208Z,15.00
2023-04-08T10:15:51.265Z,14.90
2023-04-08T10:18:20.631Z,14.80
2023-04-08T10:20:49.269Z,14.80
2023-04-08T10:23:18.154Z,14.70
2023-04-08T10:25:47.671Z,14.80
2023-04-08T10:28:22.692Z,14.70
2023-04-08T10:30:50.279Z,14.70
2023-04-08T10:33:21.229Z,14.70
2023-04-08T10:36:07.095Z,14.80
2023-04-08T10:38:34.232Z,14.70
2023-04-08T10:41:02.697Z,14.60
2023-04-08T10:43:34.596Z,14.80
2023-04-08T10:46:02.006Z,15.00
2023-04-08T10:48:32.187Z,15.00
2023-04-08T10:51:01.998Z,15.00
2023-04-08T10:53:33.945Z,15.00
2023-04-08T10:56:15.774Z,15.00
2023-04-08T10:58:55.304Z,15.00
2023-04-08T11:01:22.928Z,15.10
2023-04-08T11:03:50.867Z,15.20
2023-04-08T11:06:19.455Z,15.20
2023-04-08T11:08:47.297Z,15.30
2023-04-08T11:11:17.788Z,15.20
2023-04-08T11:13:53.467Z,15.00
2023-04-08T11:16:23.128Z,15.30
2023-04-08T11:18:51.315Z,15.40
2023-04-08T11:21:18.496Z,15.40
2023-04-08T11:23:45.671Z,15.50
2023-04-08T11:26:14.171Z,15.40
2023-04-08T11:28:41.303Z,15.70
2023-04-08T11:31:09.199Z,15.10
2023-04-08T11:33:36.478Z,15.20
2023-04-08T11:36:08.480Z,15.40
2023-04-08T11:38:40.958Z,15.70
2023-04-08T11:41:08.451Z,15.90
2023-04-08T11:43:41.046Z,15.90
2023-04-08T11:46:12.549Z,16.10
2023-04-08T11:48:40.014Z,16.00
2023-04-08T11:51:09.392Z,15.90
2023-04-08T11:53:37.873Z,16.00
2023-04-08T11:56:22.439Z,16.10
2023-04-08T11:58:50.020Z,15.90
2023-04-08T12:01:16.860Z,15.90
2023-04-08T12:04:00.091Z,16.00
2023-04-08T12:06:28.656Z,15.90
2023-04-08T12:08:56.874Z,16.00
2023-04-08T12:11:24.365Z,16.10
2023-04-08T12:13:52.803Z,16.20
2023-04-08T12:16:20.731Z,16.00
2023-04-08T12:18:48.049Z,15.90
2023-04-08T12:21:15.570Z,16.00
2023-04-08T12:23:42.729Z,15.90
2023-04-08T12:26:09.726Z,15.60
2023-04-08T12:28:36.671Z,15.60
2023-04-08T12:31:03.941Z,15.40
2023-04-08T12:33:31.897Z,15.60
2023-04-08T12:35:59.586Z,15.50
2023-04-08T12:38:27.270Z,15.50
2023-04-08T12:40:54.941Z,15.30
2023-04-08T12:43:23.669Z,15.10
2023-04-08T12:45:51.122Z,15.10
2023-04-08T12:48:18.332Z,15.00
2023-04-08T12:50:45.200Z,15.20
2023-04-08T12:53:12.149Z,15.00
2023-04-08T12:55:39.094Z,15.10
2023-04-08T12:58:06.161Z,14.80
2023-04-08T13:00:33.465Z,14.70
2023-04-08T13:03:00.938Z,14.70
2023-04-08T13:05:41.974Z,14.50
2023-04-08T13:08:09.478Z,14.60
2023-04-08T13:10:36.594Z,14.60
2023-04-08T13:13:03.978Z,14.70
2023-04-08T13:15:31.300Z,14.60
2023-04-08T13:17:58.197Z,14.50
2023-04-08T13:20:26.228Z,14.50
2023-04-08T13:22:53.704Z,14.50
2023-04-08T13:25:20.909Z,14.40
2023-04-08T13:27:48.019Z,14.40
2023-04-08T13:30:15.059Z,14.30
2023-04-08T13:32:42.087Z,14.30
2023-04-08T13:35:09.907Z,14.40
2023-04-08T13:37:36.845Z,14.40
2023-04-08T13:40:04.429Z,14.30
2023-04-08T13:42:31.614Z,14.20
2023-04-08T13:44:58.742Z,14.10
2023-04-08T13:47:27.199Z,14.10
2023-04-08T13:49:54.325Z,14.10
2023-04-08T13:52:21.365Z,14.20
2023-04-08T13:54:48.181Z,14.20
2023-04-08T13:57:15.368Z,14.20
2023-04-08T13:59:43.948Z,14.20
2023-04-08T14:02:13.024Z,14.00
2023-04-08T14:04:40.355Z,14.20
2023-04-08T14:07:07.571Z,14.30
2023-04-08T14:09:35.826Z,14.50
2023-04-08T14:12:02.942Z,14.40
2023-04-08T14:14:29.906Z,14.40
2023-04-08T14:16:57.455Z,14.40
2023-04-08T14:19:24.390Z,14.40
2023-04-08T14:21:51.414Z,14.40
2023-04-08T14:24:18.545Z,14.40
2023-04-08T14:26:45.622Z,14.40
2023-04-08T14:29:12.711Z,14.40
2023-04-08T14:31:39.963Z,14.40
2023-04-08T14:34:06.989Z,14.70
2023-04-08T14:36:33.995Z,14.70
2023-04-08T14:39:01.114Z,14.80
2023-04-08T14:41:28.194Z,14.90
2023-04-08T14:43:55.469Z,15.00
2023-04-08T14:46:22.629Z,15.20
2023-04-08T14:48:50.142Z,15.30
2023-04-08T14:51:18.074Z,15.20
2023-04-08T14:53:44.883Z,15.40
2023-04-08T14:56:11.812Z,15.40
2023-04-08T14:58:41.205Z,15.60
2023-04-08T15:01:08.362Z,15.60
2023-04-08T15:03:35.500Z,15.60
2023-04-08T15:06:02.664Z,15.60
2023-04-08T15:08:29.722Z,15.70
2023-04-08T15:10:57.116Z,15.80
2023-04-08T15:13:23.997Z,15.70
2023-04-08T15:15:51.851Z,15.50
2023-04-08T15:18:18.878Z,15.70
2023-04-08T15:20:46.086Z,15.70
2023-04-08T15:23:13.087Z,15.70
2023-04-08T15:25:41.737Z,15.70
2023-04-08T15:28:08.798Z,15.90
2023-04-08T15:30:35.902Z,15.90
2023-04-08T15:33:06.220Z,16.00
2023-04-08T15:35:33.629Z,15.90
2023-04-08T15:38:01.204Z,15.70
2023-04-08T15:40:28.177Z,15.70
2023-04-08T15:42:56.015Z,15.90
2023-04-08T15:45:23.036Z,15.80
2023-04-08T15:47:50.068Z,16.00
2023-04-08T15:50:17.576Z,16.20
2023-04-08T15:52:44.753Z,16.60
2023-04-08T15:55:11.831Z,16.80
2023-04-08T15:57:38.909Z,17.20
2023-04-08T16:00:13.171Z,17.20
2023-04-08T16:02:40.914Z,17.00
2023-04-08T16:05:09.282Z,17.30
2023-04-08T16:07:36.252Z,17.40
2023-04-08T16:10:03.350Z,17.70
2023-04-08T16:12:30.449Z,17.90
2023-04-08T16:14:57.884Z,18.00
2023-04-08T16:17:24.982Z,18.10
2023-04-08T16:19:52.323Z,18.30
2023-04-08T16:22:19.535Z,18.00
2023-04-08T16:24:46.594Z,18.20
2023-04-08T16:27:13.688Z,17.70
2023-04-08T16:29:40.828Z,17.50
2023-04-08T16:32:09.058Z,17.40
2023-04-08T16:34:36.183Z,17.20
2023-04-08T16:37:03.051Z,17.10
2023-04-08T16:39:29.936Z,17.00
2023-04-08T16:41:56.826Z,16.90
2023-04-08T16:44:23.924Z,16.90
2023-04-08T16:46:50.857Z,16.60
2023-04-08T16:49:18.474Z,16.60
2023-04-08T16:51:45.546Z,16.30
2023-04-08T16:54:12.650Z,16.20
2023-04-08T16:56:44.455Z,16.10
2023-04-08T16:59:12.223Z,15.90
2023-04-08T17:01:39.460Z,15.90
2023-04-08T17:04:06.615Z,15.70
2023-04-08T17:06:35.133Z,15.70
2023-04-08T17:09:03.883Z,15.60
2023-04-08T17:11:31.509Z,15.50
2023-04-08T17:13:58.672Z,15.40
2023-04-08T17:16:25.866Z,15.30
2023-04-08T17:18:52.993Z,15.20
2023-04-08T17:21:20.348Z,15.00
2023-04-08T17:23:47.278Z,15.10
2023-04-08T17:26:14.608Z,15.00
2023-04-08T17:28:41.819Z,15.00
2023-04-08T17:31:09.561Z,15.00
2023-04-08T17:33:36.641Z,14.90
2023-04-08T17:36:03.786Z,14.80
2023-04-08T17:38:31.069Z,14.70
2023-04-08T17:40:58.012Z,14.60
2023-04-08T17:43:25.052Z,14.50
2023-04-08T17:45:51.999Z,14.40
2023-04-08T17:48:19.029Z,14.30
2023-04-08T17:50:45.990Z,14.30
2023-04-08T17:53:12.871Z,14.20
2023-04-08T17:55:39.668Z,14.30
2023-04-08T17:58:06.666Z,14.30
2023-04-08T18:00:33.712Z,14.20
2023-04-08T18:03:00.827Z,14.20
2023-04-08T18:05:29.162Z,14.20
2023-04-08T18:07:56.127Z,14.20
2023-04-08T18:10:24.590Z,14.30
2023-04-08T18:13:00.520Z,14.30
2023-04-08T18:15:37.292Z,14.30
2023-04-08T18:18:05.896Z,14.20
2023-04-08T18:20:39.055Z,14.20
2023-04-08T18:23:06.261Z,14.10
2023-04-08T18:25:34.608Z,14.20
2023-04-08T18:28:01.975Z,14.20
2023-04-08T18:30:30.160Z,14.10
2023-04-08T18:32:57.710Z,14.00
2023-04-08T18:35:25.834Z,14.10
2023-04-08T18:37:52.702Z,14.00
2023-04-08T18:40:20.171Z,13.90
2023-04-08T18:42:47.252Z,14.00
2023-04-08T18:45:14.365Z,14.00
2023-04-08T18:47:41.521Z,13.90
2023-04-08T18:50:09.247Z,13.90
2023-04-08T18:52:36.056Z,13.80
2023-04-08T18:55:03.470Z,13.90
2023-04-08T18:57:30.775Z,13.80
2023-04-08T18:59:57.847Z,13.80
2023-04-08T19:02:24.990Z,13.80
2023-04-08T19:04:52.253Z,13.80
2023-04-08T19:07:19.206Z,13.60
2023-04-08T19:09:46.397Z,13.50
2023-04-08T19:12:13.465Z,13.40
2023-04-08T19:14:42.042Z,13.50
2023-04-08T19:17:09.864Z,13.40
2023-04-08T19:19:36.860Z,13.40
2023-04-08T19:22:05.739Z,13.30
2023-04-08T19:24:33.177Z,13.40
2023-04-08T19:27:00.497Z,13.30
2023-04-08T19:29:29.802Z,13.20
2023-04-08T19:32:00.179Z,13.30
2023-04-08T19:34:27.509Z,13.30
2023-04-08T19:36:54.585Z,13.20
2023-04-08T19:39:22.606Z,13.20
2023-04-08T19:41:50.558Z,13.20
2023-04-08T19:44:17.365Z,13.20
2023-04-08T19:46:44.217Z,13.00
2023-04-08T19:49:11.409Z,13.00
2023-04-08T19:51:38.214Z,13.00
2023-04-08T19:54:05.166Z,12.90
2023-04-08T19:56:35.370Z,13.00
2023-04-08T19:59:02.537Z,12.90
2023-04-08T20:01:29.652Z,12.80
2023-04-08T20:03:56.741Z,12.90
2023-04-08T20:06:23.918Z,12.80
2023-04-08T20:08:53.284Z,12.70
2023-04-08T20:11:20.957Z,12.60
2023-04-08T20:13:49.405Z,12.50
2023-04-08T20:16:16.750Z,12.40
2023-04-08T20:18:44.842Z,12.50
2023-04-08T20:21:14.029Z,12.30
2023-04-08T20:23:44.535Z,12.20
2023-04-08T20:26:12.897Z,12.10
2023-04-08T20:28:40.489Z,12.00
2023-04-08T20:31:07.850Z,12.00
2023-04-08T20:33:35.742Z,12.00
2023-04-08T20:36:02.889Z,12.00
2023-04-08T20:38:31.768Z,12.10
2023-04-08T20:40:58.913Z,12.10
2023-04-08T20:43:26.238Z,12.00
2023-04-08T20:45:53.716Z,12.00
2023-04-08T20:48:20.569Z,11.90
2023-04-08T20:50:50.697Z,11.80
2023-04-08T20:53:19.565Z,12.00
2023-04-08T20:55:46.421Z,12.00
2023-04-08T20:58:13.278Z,11.90
2023-04-08T21:00:40.156Z,11.90
2023-04-08T21:03:10.805Z,11.90
2023-04-08T21:05:38.779Z,11.70
2023-04-08T21:08:06.570Z,11.80
2023-04-08T21:10:33.780Z,11.70
2023-04-08T21:13:01.334Z,11.70
2023-04-08T21:15:28.419Z,11.50
2023-04-08T21:17:55.441Z,11.50
2023-04-08T21:20:22.231Z,11.30
2023-04-08T21:22:49.123Z,11.30
2023-04-08T21:25:18.044Z,11.10
2023-04-08T21:27:45.095Z,10.80
2023-04-08T21:30:12.394Z,10.80
2023-04-08T21:32:39.228Z,10.80
2023-04-08T21:35:06.657Z,10.70
2023-04-08T21:37:34.645Z,10.60
2023-04-08T21:40:01.557Z,10.60
2023-04-08T21:42:28.889Z,10.50
2023-04-08T21:44:55.867Z,10.60
2023-04-08T21:47:22.819Z,10.60
2023-04-08T21:49:50.119Z,10.50
2023-04-08T21:52:17.929Z,10.50
2023-04-08T21:54:48.125Z,10.40
2023-04-08T21:57:15.368Z,10.20
2023-04-08T21:59:42.337Z,10.30
2023-04-08T22:02:11.437Z,10.20
2023-04-08T22:04:38.591Z,10.20
2023-04-08T22:07:05.556Z,10.10
2023-04-08T22:09:32.648Z,10.00
2023-04-08T22:11:59.574Z,10.10
2023-04-08T22:14:26.513Z,10.10
2023-04-08T22:16:53.492Z,10.10
2023-04-08T22:19:20.362Z,10.10
2023-04-08T22:21:47.208Z,10.10
2023-04-08T22:24:14.210Z,10.10
2023-04-08T22:26:41.356Z,10.10
2023-04-08T22:29:08.274Z,9.90
2023-04-08T22:31:35.553Z,9.90
2023-04-08T22:34:02.690Z,9.80
2023-04-08T22:36:29.563Z,9.80
2023-04-08T22:38:56.681Z,9.80
2023-04-08T22:41:24.302Z,9.90
2023-04-08T22:43:51.456Z,9.90
2023-04-08T22:46:18.688Z,9.90
2023-04-08T22:48:46.162Z,9.80
2023-04-08T22:51:13.516Z,9.80
2023-04-08T22:53:40.594Z,9.80
2023-04-08T22:56:07.500Z,9.70
2023-04-08T22:58:34.394Z,9.70
2023-04-08T23:01:02.544Z,9.60
2023-04-08T23:03:29.480Z,9.50
2023-04-08T23:05:56.288Z,9.50
2023-04-08T23:08:26.185Z,9.40
2023-04-08T23:10:53.204Z,9.40
2023-04-08T23:13:20.881Z,9.50
2023-04-08T23:15:47.741Z,9.50
2023-04-08T23:18:14.579Z,9.40
2023-04-08T23:20:42.997Z,9.30
2023-04-08T23:23:10.124Z,9.20
2023-04-08T23:25:36.893Z,9.10
2023-04-08T23:28:03.992Z,9.00
2023-04-08T23:30:30.851Z,9.00
2023-04-08T23:32:57.740Z,9.00
2023-04-08T23:35:24.580Z,8.90
2023-04-08T23:37:51.496Z,8.90
2023-04-08T23:40:18.445Z,8.70
2023-04-08T23:42:48.286Z,8.70
2023-04-08T23:45:15.515Z,8.80
2023-04-08T23:47:42.475Z,8.80
2023-04-08T23:50:12.582Z,8.80
2023-04-08T23:52:39.647Z,8.90
2023-04-08T23:55:06.742Z,8.90
2023-04-08T23:57:33.544Z,8.90
